Time;durP1;ratioP1;P1;durP2;ratioP2;P2;SDS_P1;SDS_P2;PMS_P1;PMS_P2;Temp;Humidity;BMP_temperature;BMP_pressure;BME280_temperature;BME280_humidity;BME280_pressure;Samples;Min_cycle;Max_cycle;Signal;HPM_P1;HPM_P2
2022/10/26 00:01:12;;;;;;;0.60;0.60;;;11.30;98.40;10.70;96008.00;;;;5093440;28;20233;-52
2022/10/26 00:03:40;;;;;;;0.97;0.97;;;11.40;98.30;10.80;96014.00;;;;5093901;28;20229;-52
2022/10/26 00:06:10;;;;;;;0.80;0.80;;;11.40;98.20;10.80;96011.00;;;;5093938;28;20191;-52
2022/10/26 00:08:37;;;;;;;0.73;0.73;;;11.50;98.20;10.80;96013.00;;;;5093803;28;20219;-52
2022/10/26 00:11:07;;;;;;;0.60;0.60;;;11.50;97.50;10.80;95999.00;;;;5093776;28;20194;-51
2022/10/26 00:13:35;;;;;;;0.80;0.80;;;11.50;97.60;10.80;96015.00;;;;5093811;28;20206;-52
2022/10/26 00:16:08;;;;;;;0.60;0.60;;;11.50;97.40;10.80;96011.00;;;;5093785;28;20224;-51
2022/10/26 00:18:39;;;;;;;0.90;0.90;;;11.50;98.20;10.80;96013.00;;;;5093643;28;20689;-52
2022/10/26 00:21:08;;;;;;;0.60;0.60;;;11.50;96.80;10.80;96016.00;;;;5093753;28;20191;-52
2022/10/26 00:23:35;;;;;;;0.77;0.77;;;11.50;97.30;10.70;96020.00;;;;5093550;28;20206;-52
2022/10/26 00:26:02;;;;;;;1.23;1.10;;;11.40;97.80;10.70;96014.00;;;;5093560;28;20196;-53
2022/10/26 00:28:29;;;;;;;0.70;0.70;;;11.40;97.50;10.80;96016.00;;;;5093695;28;20194;-53
2022/10/26 00:31:01;;;;;;;0.80;0.80;;;11.40;97.50;10.80;96013.00;;;;5092469;28;20666;-52
2022/10/26 00:33:28;;;;;;;0.77;0.77;;;11.40;98.10;10.80;96016.00;;;;5093600;28;20199;-54
2022/10/26 00:35:55;;;;;;;11.40;1.53;;;11.50;98.30;10.80;96017.00;;;;5075806;28;20203;-52
2022/10/26 00:38:22;;;;;;;0.80;0.80;;;11.50;98.60;10.80;96018.00;;;;5093649;28;20281;-52
2022/10/26 00:40:49;;;;;;;1.30;1.20;;;11.50;98.10;10.80;96013.00;;;;5093442;28;20272;-52
2022/10/26 00:43:38;;;;;;;0.60;0.60;;;11.50;97.70;10.80;96022.00;;;;5092382;28;20194;-54
2022/10/26 00:46:11;;;;;;;1.00;0.87;;;11.50;98.20;10.80;96015.00;;;;5093381;28;20191;-56
2022/10/26 00:48:43;;;;;;;1.03;1.03;;;11.50;98.30;10.80;96005.00;;;;5093394;28;20246;-55
2022/10/26 00:51:20;;;;;;;0.70;0.70;;;11.50;98.40;10.90;95995.00;;;;5093321;28;20268;-52
2022/10/26 00:53:50;;;;;;;0.87;0.87;;;11.60;98.50;10.90;96002.00;;;;5093335;28;20198;-51
2022/10/26 00:56:17;;;;;;;0.83;0.83;;;11.60;99.00;10.90;96008.00;;;;5093205;28;20210;-52
2022/10/26 00:58:44;;;;;;;0.70;0.70;;;11.60;97.80;11.00;96012.00;;;;5093205;28;20216;-53
2022/10/26 01:01:14;;;;;;;1.23;1.13;;;11.60;96.90;10.90;96006.00;;;;5093154;28;20206;-53
2022/10/26 01:03:42;;;;;;;1.13;1.13;;;11.60;97.50;10.90;95991.00;;;;5093117;28;20195;-52
2022/10/26 01:06:11;;;;;;;0.73;0.73;;;11.60;97.70;10.80;95991.00;;;;5093136;28;20525;-53
2022/10/26 01:08:38;;;;;;;0.80;0.80;;;11.50;97.90;10.80;95996.00;;;;5093047;28;20291;-52
2022/10/26 01:11:07;;;;;;;0.93;0.93;;;11.50;98.20;10.80;95987.00;;;;5092965;28;20727;-54
2022/10/26 01:13:35;;;;;;;0.70;0.70;;;11.60;98.10;10.80;95984.00;;;;5095080;28;20221;-52
2022/10/26 01:16:23;;;;;;;1.10;1.10;;;11.60;98.20;10.80;95993.00;;;;5096513;28;20226;-52
2022/10/26 01:19:06;;;;;;;1.10;1.10;;;11.60;97.50;10.80;95989.00;;;;5096579;28;20198;-56
2022/10/26 01:21:47;;;;;;;0.80;0.80;;;11.50;98.10;10.80;95993.00;;;;5096596;28;20217;-52
2022/10/26 01:24:36;;;;;;;0.77;0.77;;;11.50;97.70;10.80;95976.00;;;;5096444;28;20207;-53
2022/10/26 01:27:19;;;;;;;0.73;0.73;;;11.50;98.50;10.80;95986.00;;;;5096424;28;20282;-52
2022/10/26 01:30:31;;;;;;;0.80;0.80;;;11.50;98.60;10.80;95977.00;;;;5096457;28;20659;-52
2022/10/26 01:33:31;;;;;;;1.00;1.00;;;11.50;98.20;10.80;95977.00;;;;5096254;28;20236;-52
2022/10/26 01:36:12;;;;;;;0.60;0.60;;;11.50;98.80;10.70;95977.00;;;;5078525;28;20295;-52
2022/10/26 01:38:51;;;;;;;1.10;1.10;;;11.50;98.50;10.60;95963.00;;;;5096199;28;20205;-52
2022/10/26 01:41:28;;;;;;;0.70;0.70;;;11.50;99.90;10.70;95965.00;;;;5096140;28;20218;-52
2022/10/26 01:44:00;;;;;;;1.47;1.40;;;11.50;99.40;10.70;95966.00;;;;5096198;28;20194;-53
2022/10/26 01:46:35;;;;;;;0.73;0.73;;;11.40;98.70;10.70;95948.00;;;;5096110;28;20280;-52
2022/10/26 01:49:08;;;;;;;1.03;1.03;;;11.40;99.30;10.70;95937.00;;;;5096077;28;20198;-54
2022/10/26 01:51:35;;;;;;;0.67;0.67;;;11.40;99.30;10.60;95943.00;;;;5095959;28;20230;-53
2022/10/26 01:54:01;;;;;;;0.60;0.60;;;11.30;99.10;10.60;95939.00;;;;5078176;28;20210;-52
2022/10/26 01:56:33;;;;;;;0.80;0.80;;;11.30;99.80;10.60;95945.00;;;;5078253;28;20290;-52
2022/10/26 01:59:33;;;;;;;1.00;1.00;;;11.30;99.50;10.60;95956.00;;;;5078212;28;20215;-52
2022/10/26 02:02:40;;;;;;;5.20;1.20;;;11.40;99.90;10.70;95964.00;;;;5094898;28;20226;-52
2022/10/26 02:05:35;;;;;;;0.80;0.80;;;11.40;99.90;10.60;95972.00;;;;5095823;28;20221;-54
2022/10/26 02:08:18;;;;;;;0.77;0.77;;;11.30;99.30;10.50;95975.00;;;;5095899;28;20195;-52
2022/10/26 02:11:01;;;;;;;0.60;0.60;;;11.30;99.40;10.60;95982.00;;;;5095704;28;20509;-52
2022/10/26 02:13:40;;;;;;;0.67;0.67;;;11.20;99.90;10.50;95977.00;;;;5095812;28;20195;-52
2022/10/26 02:16:21;;;;;;;0.90;0.90;;;11.20;99.90;10.60;95984.00;;;;5095639;28;20218;-55
2022/10/26 02:19:01;;;;;;;0.80;0.80;;;11.30;99.90;10.70;95986.00;;;;5095885;28;20309;-52
2022/10/26 02:21:40;;;;;;;0.60;0.60;;;11.40;99.90;10.70;95984.00;;;;5095445;28;20210;-52
2022/10/26 02:24:12;;;;;;;0.70;0.70;;;11.40;99.90;10.70;95989.00;;;;5095190;28;20190;-57
2022/10/26 02:26:43;;;;;;;0.73;0.73;;;11.40;99.90;10.80;95978.00;;;;5095528;28;20297;-54
2022/10/26 02:29:15;;;;;;;0.60;0.60;;;11.40;99.90;10.80;95967.00;;;;5095671;28;20195;-54
2022/10/26 02:31:45;;;;;;;0.80;0.80;;;11.50;99.90;10.90;95970.00;;;;5095414;28;20314;-54
2022/10/26 02:34:23;;;;;;;0.73;0.73;;;11.60;99.90;11.00;95984.00;;;;5095379;28;20286;-52
2022/10/26 02:36:54;;;;;;;0.77;0.77;;;11.70;99.90;11.10;95965.00;;;;5095508;28;20509;-53
2022/10/26 02:39:21;;;;;;;0.90;0.90;;;11.70;99.90;11.10;95974.00;;;;5094563;28;20577;-52
2022/10/26 02:41:49;;;;;;;0.93;0.93;;;11.80;99.90;11.20;95986.00;;;;5095191;28;20588;-51
2022/10/26 02:44:23;;;;;;;1.10;1.10;;;11.90;99.90;11.30;95990.00;;;;5095340;28;20636;-52
2022/10/26 02:46:50;;;;;;;0.70;0.70;;;12.00;99.90;11.40;95993.00;;;;5095243;28;20257;-52
2022/10/26 02:49:18;;;;;;;0.80;0.80;;;12.00;99.90;11.60;95995.00;;;;5095275;28;20278;-53
2022/10/26 02:51:52;;;;;;;0.67;0.67;;;12.20;99.10;11.40;95991.00;;;;5095258;28;20651;-52
2022/10/26 02:54:30;;;;;;;1.10;1.10;;;12.10;98.70;11.30;95997.00;;;;5094404;28;20220;-52
2022/10/26 02:57:02;;;;;;;0.83;0.83;;;12.00;99.20;11.30;96009.00;;;;5095315;28;20226;-52
2022/10/26 02:59:35;;;;;;;0.60;0.60;;;12.00;99.80;11.20;96011.00;;;;5095135;28;20201;-52
2022/10/26 03:02:04;;;;;;;0.80;0.80;;;11.90;99.50;11.30;96005.00;;;;5094882;28;20225;-52
2022/10/26 03:04:33;;;;;;;0.60;0.60;;;11.90;99.40;11.30;96009.00;;;;5094895;28;20199;-51
2022/10/26 03:07:00;;;;;;;0.70;0.70;;;12.00;99.50;11.40;96012.00;;;;5094815;28;20215;-52
2022/10/26 03:09:27;;;;;;;0.90;0.90;;;12.10;99.90;11.40;96008.00;;;;5094845;28;20195;-52
2022/10/26 03:11:53;;;;;;;1.00;1.00;;;12.10;99.80;11.40;96013.00;;;;5094730;28;20223;-54
2022/10/26 03:14:20;;;;;;;1.10;1.10;;;12.10;99.90;11.50;96011.00;;;;5094782;28;20199;-52
2022/10/26 03:16:47;;;;;;;1.03;1.00;;;12.20;99.90;11.60;96005.00;;;;5094681;28;20226;-52
2022/10/26 03:19:13;;;;;;;0.70;0.70;;;12.20;99.90;11.60;96008.00;;;;5094729;28;20195;-52
2022/10/26 03:21:42;;;;;;;1.10;1.10;;;12.30;99.80;11.60;96013.00;;;;5094565;28;20202;-52
2022/10/26 03:24:09;;;;;;;1.00;1.00;;;12.40;99.70;11.80;96001.00;;;;5094582;28;20328;-52
2022/10/26 03:26:36;;;;;;;1.07;1.07;;;12.40;99.90;11.80;96012.00;;;;5094459;28;20301;-55
2022/10/26 03:29:05;;;;;;;1.00;1.00;;;12.40;99.60;11.90;96012.00;;;;5094452;28;20230;-53
2022/10/26 03:31:33;;;;;;;0.67;0.67;;;12.50;99.10;11.90;96015.00;;;;5094285;28;20368;-52
2022/10/26 03:34:00;;;;;;;1.00;0.90;;;12.50;98.90;11.90;96012.00;;;;5094501;28;20273;-52
2022/10/26 03:36:29;;;;;;;1.10;1.10;;;12.50;98.80;11.90;96009.00;;;;5093259;28;20271;-52
2022/10/26 03:38:56;;;;;;;0.50;0.50;;;12.60;98.70;11.90;96003.00;;;;5094409;28;20215;-52
2022/10/26 03:41:23;;;;;;;0.93;0.93;;;12.50;98.70;12.10;95996.00;;;;5094256;28;20309;-52
2022/10/26 03:43:49;;;;;;;0.70;0.70;;;12.60;98.80;12.30;95992.00;;;;5094275;28;20209;-52
2022/10/26 03:46:15;;;;;;;1.00;1.00;;;12.80;96.20;12.30;95985.00;;;;5094036;28;20691;-52
2022/10/26 03:48:42;;;;;;;0.77;0.77;;;13.00;96.60;12.50;95987.00;;;;5094155;28;20218;-51
2022/10/26 03:51:08;;;;;;;0.70;0.70;;;13.00;95.90;12.50;95991.00;;;;5094007;28;20191;-52
2022/10/26 03:53:35;;;;;;;1.43;1.43;;;13.10;95.80;12.30;95990.00;;;;5094027;28;20218;-52
2022/10/26 03:56:02;;;;;;;0.97;0.97;;;12.90;95.00;12.30;95992.00;;;;5093927;28;20629;-51
2022/10/26 03:58:28;;;;;;;0.80;0.80;;;12.90;95.80;12.20;95994.00;;;;5076058;28;20662;-52
2022/10/26 04:00:54;;;;;;;1.70;0.80;;;12.90;96.00;12.10;95972.00;;;;5094129;28;20198;-52
2022/10/26 04:03:21;;;;;;;0.70;0.70;;;12.80;96.00;12.10;95988.00;;;;5093867;28;20689;-52
2022/10/26 04:05:47;;;;;;;0.70;0.70;;;12.80;95.90;12.00;96001.00;;;;5093977;28;20199;-53
2022/10/26 04:08:14;;;;;;;0.70;0.70;;;12.70;96.20;11.90;95981.00;;;;5092922;28;20213;-54
2022/10/26 04:10:40;;;;;;;0.90;0.90;;;12.70;96.10;11.80;95990.00;;;;5093805;28;20191;-52
2022/10/26 04:13:09;;;;;;;0.80;0.80;;;12.50;96.50;11.80;95990.00;;;;5093752;28;20222;-51
2022/10/26 04:15:35;;;;;;;0.93;0.80;;;12.50;96.80;11.80;95994.00;;;;5093792;28;20194;-53
2022/10/26 04:18:02;;;;;;;1.10;1.10;;;12.50;98.00;11.70;95997.00;;;;5094014;28;20195;-53
2022/10/26 04:20:32;;;;;;;0.60;0.60;;;12.50;97.40;11.70;96007.00;;;;5093750;28;20267;-52
2022/10/26 04:23:00;;;;;;;0.50;0.50;;;12.40;98.70;11.70;95992.00;;;;5093640;28;20656;-54
2022/10/26 04:25:27;;;;;;;1.00;1.00;;;12.40;98.60;11.80;95995.00;;;;5093763;28;20203;-52
2022/10/26 04:27:54;;;;;;;1.10;1.10;;;12.40;99.20;11.80;95990.00;;;;5093907;28;20349;-54
2022/10/26 04:30:24;;;;;;;0.70;0.70;;;12.50;99.30;11.90;96003.00;;;;5093924;28;20199;-52
2022/10/26 04:32:50;;;;;;;0.70;0.70;;;12.50;99.60;11.90;95989.00;;;;5093617;28;20709;-54
2022/10/26 04:35:17;;;;;;;1.00;1.00;;;12.60;99.70;11.90;95990.00;;;;5093538;28;20199;-55
2022/10/26 04:37:44;;;;;;;0.60;0.60;;;12.60;99.40;11.80;95984.00;;;;5093835;28;20237;-52
2022/10/26 04:40:13;;;;;;;0.70;0.70;;;12.50;99.50;11.80;95986.00;;;;5093460;28;20198;-52
2022/10/26 04:42:44;;;;;;;1.27;0.80;;;12.50;99.90;12.00;95996.00;;;;5093310;28;20240;-52
2022/10/26 04:45:12;;;;;;;0.80;0.80;;;12.60;99.90;12.00;96007.00;;;;5093697;28;20297;-53
2022/10/26 04:47:40;;;;;;;0.70;0.70;;;12.60;99.90;11.90;95995.00;;;;5093140;28;20655;-52
2022/10/26 04:50:09;;;;;;;0.60;0.60;;;12.60;99.60;12.00;96002.00;;;;5093385;28;20222;-52
2022/10/26 04:52:36;;;;;;;0.60;0.60;;;12.60;99.90;12.10;96003.00;;;;5093136;28;20675;-52
2022/10/26 04:55:05;;;;;;;0.80;0.80;;;12.70;99.90;12.10;95997.00;;;;5075418;28;20207;-52
2022/10/26 04:57:32;;;;;;;0.77;0.77;;;12.70;99.90;12.10;95992.00;;;;5093198;28;20249;-52
2022/10/26 04:59:59;;;;;;;0.90;0.90;;;12.70;99.90;12.20;95996.00;;;;5092238;28;20207;-52
2022/10/26 05:02:26;;;;;;;0.90;0.90;;;12.80;99.90;12.20;96000.00;;;;5093186;28;20233;-54
2022/10/26 05:04:53;;;;;;;1.50;0.90;;;12.80;99.90;12.20;95999.00;;;;5093264;28;20194;-53
2022/10/26 05:07:22;;;;;;;0.60;0.60;;;12.90;99.90;12.20;96009.00;;;;5093046;28;20218;-52
2022/10/26 05:09:48;;;;;;;0.70;0.70;;;12.80;99.90;12.10;96009.00;;;;5093339;28;20270;-52
2022/10/26 05:12:15;;;;;;;0.87;0.87;;;12.80;99.90;12.10;96020.00;;;;5092945;28;20313;-53
2022/10/26 05:14:41;;;;;;;0.70;0.70;;;12.80;99.90;12.10;96012.00;;;;5093161;28;20194;-52
2022/10/26 05:17:08;;;;;;;0.80;0.80;;;12.80;99.90;12.00;96018.00;;;;5092909;28;20198;-52
2022/10/26 05:19:34;;;;;;;0.57;0.57;;;12.70;99.90;11.90;96022.00;;;;5092974;28;20281;-53
2022/10/26 05:22:01;;;;;;;1.43;1.33;;;12.60;99.90;11.90;96027.00;;;;5092954;28;20197;-52
2022/10/26 05:24:28;;;;;;;0.67;0.67;;;12.60;99.90;12.00;96035.00;;;;5092981;28;20226;-52
2022/10/26 05:26:54;;;;;;;0.70;0.70;;;12.60;99.90;12.20;96043.00;;;;5092929;28;20199;-52
2022/10/26 05:29:23;;;;;;;5.73;1.07;;;12.80;99.90;12.10;96041.00;;;;5092918;28;20285;-53
2022/10/26 05:31:49;;;;;;;1.17;1.17;;;12.70;99.90;12.10;96041.00;;;;5091885;28;20639;-54
2022/10/26 05:34:16;;;;;;;0.93;0.93;;;12.70;99.90;12.10;96039.00;;;;5092934;28;20202;-53
2022/10/26 05:36:44;;;;;;;0.60;0.60;;;12.70;99.90;12.20;96036.00;;;;5093076;28;20263;-52
2022/10/26 05:39:14;;;;;;;0.70;0.70;;;12.70;99.90;12.00;96037.00;;;;5092821;28;20532;-52
2022/10/26 05:41:40;;;;;;;0.90;0.90;;;12.60;99.90;12.00;96031.00;;;;5092879;28;20191;-53
2022/10/26 05:44:06;;;;;;;0.70;0.70;;;12.60;99.90;11.90;96028.00;;;;5092825;28;20191;-55
2022/10/26 05:46:33;;;;;;;0.70;0.70;;;12.60;99.90;12.00;96034.00;;;;5092695;28;20264;-53
2022/10/26 05:48:59;;;;;;;1.40;1.40;;;12.70;99.90;12.00;96043.00;;;;5092766;28;20226;-61
2022/10/26 05:51:25;;;;;;;0.80;0.80;;;12.70;99.90;12.20;96045.00;;;;5074694;28;20210;-61
2022/10/26 05:53:53;;;;;;;0.73;0.73;;;12.80;99.90;12.20;96058.00;;;;5092543;28;20284;-54
2022/10/26 05:56:34;;;;;;;0.97;0.97;;;12.80;99.90;12.30;96059.00;;;;5092793;28;20206;-57
2022/10/26 05:59:04;;;;;;;1.20;1.20;;;12.90;99.90;12.30;96063.00;;;;5093818;28;20228;-56
2022/10/26 06:01:47;;;;;;;0.70;0.70;;;13.00;99.90;12.40;96069.00;;;;5096209;28;20251;-53
2022/10/26 06:04:29;;;;;;;0.73;0.73;;;13.00;99.90;12.40;96078.00;;;;5095962;28;20651;-53
2022/10/26 06:06:59;;;;;;;0.60;0.60;;;12.90;99.90;12.40;96090.00;;;;5096046;28;20194;-53
2022/10/26 06:09:26;;;;;;;1.70;1.60;;;13.00;99.90;12.40;96092.00;;;;5095862;28;20233;-52
2022/10/26 06:11:54;;;;;;;0.50;0.50;;;13.00;99.90;12.40;96103.00;;;;5095642;28;20297;-52
2022/10/26 06:14:24;;;;;;;0.63;0.63;;;13.00;99.90;12.50;96105.00;;;;5095712;28;20218;-53
2022/10/26 06:17:12;;;;;;;0.70;0.70;;;13.10;99.90;12.50;96102.00;;;;5095746;28;20198;-53
2022/10/26 06:19:56;;;;;;;0.60;0.60;;;13.10;99.80;12.50;96101.00;;;;5095620;28;20244;-52
2022/10/26 06:22:38;;;;;;;0.70;0.70;;;13.00;99.80;12.50;96107.00;;;;5096038;28;20283;-55
2022/10/26 06:25:23;;;;;;;1.17;1.07;;;13.10;99.90;12.60;96119.00;;;;5095679;28;20238;-53
2022/10/26 06:28:04;;;;;;;0.70;0.70;;;13.20;99.50;12.50;96119.00;;;;5095471;28;20202;-53
2022/10/26 06:30:32;;;;;;;1.43;1.33;;;13.20;99.90;12.60;96113.00;;;;5095425;28;20212;-53
2022/10/26 06:33:01;;;;;;;0.67;0.67;;;13.20;99.30;12.60;96118.00;;;;5095305;28;20211;-53
2022/10/26 06:35:41;;;;;;;0.80;0.80;;;13.10;99.90;12.60;96118.00;;;;5095534;28;20576;-52
2022/10/26 06:38:12;;;;;;;0.60;0.60;;;;;12.60;96113.00;;;;5077608;28;20194;-51
2022/10/26 06:40:43;;;;;;;0.97;0.97;;;13.20;98.40;12.60;96114.00;;;;5095353;28;20213;-50
2022/10/26 06:43:20;;;;;;;1.00;1.00;;;13.20;99.40;12.60;96120.00;;;;5095359;28;20202;-51
2022/10/26 06:45:53;;;;;;;0.77;0.77;;;13.20;99.50;12.70;96116.00;;;;5095181;28;20758;-49
2022/10/26 06:48:25;;;;;;;0.77;0.77;;;13.30;99.30;12.80;96111.00;;;;5095069;28;20207;-50
2022/10/26 06:50:52;;;;;;;0.50;0.50;;;13.40;97.80;12.70;96118.00;;;;5095054;28;20220;-50
2022/10/26 06:53:26;;;;;;;0.90;0.90;;;13.30;97.90;12.60;96125.00;;;;5094923;28;20219;-50
2022/10/26 06:55:56;;;;;;;1.23;1.23;;;13.30;99.20;12.70;96125.00;;;;5095045;28;20579;-52
2022/10/26 06:58:28;;;;;;;0.70;0.70;;;13.30;99.50;12.80;96128.00;;;;5095417;28;20206;-52
2022/10/26 07:00:57;;;;;;;1.00;1.00;;;13.40;98.80;12.70;96119.00;;;;5095000;28;20190;-52
2022/10/26 07:03:24;;;;;;;2.67;1.00;;;13.40;98.40;12.70;96132.00;;;;5094979;28;20653;-52
2022/10/26 07:05:51;;;;;;;0.90;0.90;;;13.40;99.60;12.80;96140.00;;;;5095072;28;20249;-52
2022/10/26 07:08:17;;;;;;;0.50;0.50;;;13.50;98.00;12.90;96143.00;;;;5094919;28;20223;-52
2022/10/26 07:10:45;;;;;;;0.60;0.60;;;13.50;98.70;12.90;96153.00;;;;5095044;28;20289;-52
2022/10/26 07:13:12;;;;;;;0.60;0.60;;;13.50;98.40;13.00;96151.00;;;;5094766;28;20635;-52
2022/10/26 07:15:39;;;;;;;0.83;0.83;;;13.60;98.20;13.00;96155.00;;;;5094797;28;20268;-52
2022/10/26 07:18:08;;;;;;;3.23;1.40;;;13.60;98.20;13.00;96157.00;;;;5094928;28;20199;-56
2022/10/26 07:20:37;;;;;;;0.83;0.83;;;13.60;98.00;13.00;96156.00;;;;5094745;28;20218;-52
2022/10/26 07:23:06;;;;;;;0.73;0.73;;;13.60;98.30;13.10;96162.00;;;;5094711;28;20659;-52
2022/10/26 07:25:34;;;;;;;1.00;1.00;;;13.70;97.60;13.20;96168.00;;;;5094607;28;20225;-52
2022/10/26 07:28:01;;;;;;;1.43;1.17;;;13.80;97.30;13.20;96176.00;;;;5094622;28;20274;-54
2022/10/26 07:30:28;;;;;;;0.60;0.60;;;13.80;96.60;13.20;96178.00;;;;5094526;28;20244;-54
2022/10/26 07:33:02;;;;;;;0.70;0.70;;;13.70;96.00;13.10;96175.00;;;;5094460;28;20659;-51
2022/10/26 07:35:29;;;;;;;0.60;0.60;;;13.70;96.90;13.00;96171.00;;;;5094619;28;20667;-53
2022/10/26 07:37:58;;;;;;;1.40;1.30;;;13.60;97.50;13.00;96172.00;;;;5094456;28;20209;-53
2022/10/26 07:40:26;;;;;;;1.00;1.00;;;13.60;98.20;13.00;96181.00;;;;5094414;28;20206;-54
2022/10/26 07:42:57;;;;;;;0.80;0.80;;;13.60;97.70;13.20;96171.00;;;;5094395;28;20218;-53
2022/10/26 07:45:27;;;;;;;1.07;1.07;;;13.70;96.50;13.00;96187.00;;;;5076572;28;20666;-54
2022/10/26 07:47:57;;;;;;;1.30;1.23;;;13.60;97.10;13.20;96176.00;;;;5094299;28;20671;-52
2022/10/26 07:50:24;;;;;;;2.00;1.07;;;13.70;96.30;13.10;96182.00;;;;5094459;28;20210;-52
2022/10/26 07:52:51;;;;;;;0.70;0.70;;;13.70;96.70;13.00;96173.00;;;;5094356;28;20229;-51
2022/10/26 07:55:19;;;;;;;0.80;0.80;;;13.70;97.80;13.10;96158.00;;;;5094346;28;20233;-51
2022/10/26 07:57:45;;;;;;;0.83;0.83;;;13.70;98.50;13.10;96188.00;;;;5094046;28;20325;-52
2022/10/26 08:00:14;;;;;;;0.80;0.80;;;13.70;96.90;13.10;96187.00;;;;5094295;28;20222;-50
2022/10/26 08:02:40;;;;;;;1.20;1.20;;;13.80;96.30;13.20;96196.00;;;;5094125;28;20286;-52
2022/10/26 08:05:09;;;;;;;0.80;0.80;;;13.80;97.10;13.30;96180.00;;;;5094440;28;20253;-52
2022/10/26 08:07:42;;;;;;;1.07;1.07;;;13.80;97.20;13.30;96183.00;;;;5093533;28;20541;-53
2022/10/26 08:10:10;;;;;;;0.70;0.70;;;;;13.40;96186.00;;;;5094091;28;20205;-52
2022/10/26 08:12:37;;;;;;;0.90;0.90;;;14.00;95.70;13.40;96180.00;;;;5093821;28;20218;-52
2022/10/26 08:15:04;;;;;;;0.80;0.80;;;13.90;95.60;13.40;96191.00;;;;5094068;28;20207;-53
2022/10/26 08:17:31;;;;;;;1.07;1.07;;;14.10;95.30;13.50;96191.00;;;;5093623;28;20251;-50
2022/10/26 08:19:57;;;;;;;0.70;0.70;;;14.00;95.10;13.50;96193.00;;;;5093741;28;20276;-51
2022/10/26 08:22:24;;;;;;;0.60;0.60;;;14.10;95.60;13.60;96191.00;;;;5093117;28;20268;-51
2022/10/26 08:24:51;;;;;;;0.67;0.67;;;14.20;95.50;13.80;96194.00;;;;5093632;28;20207;-51
2022/10/26 08:27:18;;;;;;;0.73;0.73;;;14.30;96.20;13.90;96196.00;;;;5093592;28;20325;-51
2022/10/26 08:29:44;;;;;;;0.67;0.67;;;14.40;95.50;13.80;96192.00;;;;5075757;28;20209;-51
2022/10/26 08:32:11;;;;;;;1.10;1.00;;;14.50;94.90;14.00;96197.00;;;;5093402;28;20218;-50
2022/10/26 08:34:37;;;;;;;1.27;1.00;;;14.50;95.60;14.20;96190.00;;;;5093426;28;20682;-51
2022/10/26 08:37:04;;;;;;;1.37;1.37;;;;;14.20;96190.00;;;;5092504;28;20233;-51
2022/10/26 08:39:31;;;;;;;0.73;0.73;;;14.60;94.70;14.20;96193.00;;;;5093472;28;20228;-51
2022/10/26 08:42:11;;;;;;;0.70;0.70;;;14.70;94.70;14.30;96182.00;;;;5093475;28;20285;-53
2022/10/26 08:44:45;;;;;;;0.90;0.90;;;14.80;94.40;14.50;96215.00;;;;5093473;28;20278;-52
2022/10/26 08:47:19;;;;;;;0.90;0.90;;;15.00;94.20;14.60;96188.00;;;;5093486;28;20624;-51
2022/10/26 08:49:54;;;;;;;0.87;0.87;;;15.10;92.80;14.50;96216.00;;;;5093416;28;20197;-51
2022/10/26 08:52:29;;;;;;;0.73;0.67;;;15.10;93.40;14.60;96219.00;;;;5093132;28;20222;-51
2022/10/26 08:54:58;;;;;;;0.87;0.77;;;15.10;93.40;14.70;96216.00;;;;5093534;28;20297;-50
2022/10/26 08:57:34;;;;;;;0.70;0.70;;;15.10;93.60;14.90;96229.00;;;;5093233;28;20228;-51
2022/10/26 09:00:06;;;;;;;0.60;0.60;;;15.30;92.90;14.90;96234.00;;;;5093178;28;20267;-51
2022/10/26 09:02:32;;;;;;;1.37;0.97;;;15.40;93.00;14.90;96220.00;;;;5093155;28;20347;-51
2022/10/26 09:04:59;;;;;;;1.40;1.30;;;15.50;90.90;15.00;96236.00;;;;5093271;28;20230;-57
2022/10/26 09:07:47;;;;;;;0.50;0.50;;;15.50;91.50;14.90;96237.00;;;;5093150;28;20191;-51
2022/10/26 09:10:34;;;;;;;0.70;0.70;;;15.40;91.30;15.10;96237.00;;;;5093085;28;20279;-51
2022/10/26 09:13:17;;;;;;;0.60;0.60;;;15.60;92.60;15.30;96237.00;;;;5092968;28;20237;-51
2022/10/26 09:15:59;;;;;;;7.17;1.20;;;15.80;92.10;15.50;96240.00;;;;5092921;28;20221;-50
2022/10/26 09:18:46;;;;;;;0.70;0.70;;;16.00;90.30;15.40;96242.00;;;;5093306;28;20247;-54
2022/10/26 09:21:37;;;;;;;0.53;0.53;;;;;15.70;96246.00;;;;5093179;28;20245;-52
2022/10/26 09:24:13;;;;;;;9.13;1.67;;;16.20;89.20;15.90;96235.00;;;;5093153;28;20205;-52
2022/10/26 09:26:53;;;;;;;0.50;0.50;;;16.30;88.70;16.20;96218.00;;;;5092841;28;20670;-52
2022/10/26 09:29:26;;;;;;;8.70;0.83;;;16.60;88.40;16.20;96234.00;;;;5092372;28;20221;-53
2022/10/26 09:31:56;;;;;;;0.67;0.67;;;16.80;87.60;16.50;96237.00;;;;5092660;28;20616;-52
2022/10/26 09:34:29;;;;;;;0.60;0.60;;;;;16.60;96239.00;;;;5094458;28;20208;-51
2022/10/26 09:36:56;;;;;;;1.60;1.40;;;;;16.60;96238.00;;;;5096263;28;20186;-53
2022/10/26 09:39:39;;;;;;;0.60;0.60;;;;;16.70;96240.00;;;;5078499;28;20232;-58
2022/10/26 09:42:16;;;;;;;0.60;0.60;;;;;16.70;96244.00;;;;5096583;28;20186;-52
2022/10/26 09:44:54;;;;;;;0.63;0.63;;;17.10;82.50;16.60;96235.00;;;;5096290;28;20202;-53
2022/10/26 09:47:34;;;;;;;0.93;0.93;;;17.10;83.90;16.90;96256.00;;;;5096191;28;20277;-59
2022/10/26 09:50:17;;;;;;;2.03;1.23;;;17.30;83.70;17.00;96267.00;;;;5096132;28;20278;-59
2022/10/26 09:52:46;;;;;;;1.03;1.03;;;17.40;82.40;17.00;96263.00;;;;5096258;28;20242;-57
2022/10/26 09:55:13;;;;;;;0.90;0.90;;;17.40;82.90;17.20;96273.00;;;;5096112;28;20226;-53
2022/10/26 09:57:44;;;;;;;0.87;0.87;;;17.60;83.80;17.30;96280.00;;;;5095996;28;20199;-52
2022/10/26 10:00:15;;;;;;;0.90;0.90;;;17.70;81.90;17.50;96287.00;;;;5094788;28;20313;-53
2022/10/26 10:02:43;;;;;;;1.30;1.20;;;17.80;81.20;17.60;96281.00;;;;5078207;28;20666;-52
2022/10/26 10:05:31;;;;;;;1.03;1.03;;;18.00;82.10;17.90;96293.00;;;;5095836;28;20207;-54
2022/10/26 10:08:17;;;;;;;1.40;1.10;;;18.10;76.50;17.60;96299.00;;;;5095824;28;20278;-53
2022/10/26 10:11:02;;;;;;;0.80;0.80;;;18.30;72.30;17.90;96285.00;;;;5095882;28;20682;-52
2022/10/26 10:13:31;;;;;;;1.20;1.13;;;18.40;71.00;18.00;96285.00;;;;5095691;28;20218;-52
2022/10/26 10:16:12;;;;;;;0.60;0.60;;;18.60;71.70;18.30;96285.00;;;;5095758;28;20195;-52
2022/10/26 10:18:41;;;;;;;1.20;0.73;;;;;18.50;96291.00;;;;5095694;28;20234;-52
2022/10/26 10:21:09;;;;;;;0.50;0.50;;;18.80;69.90;18.50;96290.00;;;;5077992;28;20233;-52
2022/10/26 10:23:46;;;;;;;1.40;1.37;;;19.00;69.90;18.70;96294.00;;;;5095635;28;20307;-52
2022/10/26 10:26:13;;;;;;;0.60;0.60;;;19.00;69.50;19.10;96310.00;;;;5095560;28;20222;-52
2022/10/26 10:28:41;;;;;;;0.60;0.60;;;19.00;99.50;18.90;96290.00;;;;5095628;28;20476;-52
2022/10/26 10:31:21;;;;;;;1.20;1.10;;;;;18.90;96311.00;;;;5095549;28;20222;-56
2022/10/26 10:33:48;;;;;;;0.47;0.47;;;19.30;67.80;18.90;96293.00;;;;5095365;28;20213;-52
2022/10/26 10:36:18;;;;;;;0.50;0.50;;;;;18.90;96307.00;;;;5095382;28;20659;-52
2022/10/26 10:38:47;;;;;;;0.67;0.67;;;19.20;67.40;18.90;96297.00;;;;5095373;28;20218;-52
2022/10/26 10:41:23;;;;;;;0.60;0.60;;;19.30;69.60;18.90;96303.00;;;;5095623;28;20651;-52
2022/10/26 10:43:56;;;;;;;0.90;0.90;;;19.30;67.70;19.00;96318.00;;;;5095315;28;20273;-52
2022/10/26 10:46:27;;;;;;;0.73;0.70;;;19.30;67.20;18.70;96316.00;;;;5094911;28;20222;-53
2022/10/26 10:49:03;;;;;;;2.40;1.50;;;19.10;67.10;18.70;96318.00;;;;5095355;28;20202;-52
2022/10/26 10:51:37;;;;;;;1.20;0.90;;;19.00;68.50;18.60;96310.00;;;;5095413;28;20229;-52
2022/10/26 10:54:20;;;;;;;0.60;0.60;;;19.00;67.00;18.50;96322.00;;;;5095115;28;20234;-52
2022/10/26 10:56:54;;;;;;;0.60;0.60;;;19.20;69.00;18.80;96327.00;;;;5095316;28;20206;-51
2022/10/26 10:59:54;;;;;;;0.57;0.57;;;19.20;66.60;19.10;96321.00;;;;5095070;28;20201;-52
2022/10/26 11:02:50;;;;;;;0.60;0.60;;;;;19.30;96324.00;;;;5095044;28;20205;-52
2022/10/26 11:05:42;;;;;;;0.60;0.60;;;19.70;68.70;19.00;96316.00;;;;5094912;28;20214;-51
2022/10/26 11:08:17;;;;;;;0.60;0.60;;;19.50;71.60;19.10;96332.00;;;;5095114;28;20215;-52
2022/10/26 11:10:53;;;;;;;9.03;1.50;;;19.50;78.50;18.90;96332.00;;;;5095086;28;20225;-52
2022/10/26 11:13:25;;;;;;;0.40;0.40;;;19.40;78.00;18.90;96339.00;;;;5094726;28;20229;-53
2022/10/26 11:15:58;;;;;;;0.50;0.50;;;19.20;62.40;18.80;96323.00;;;;5094733;28;20553;-54
2022/10/26 11:18:33;;;;;;;0.70;0.70;;;19.20;64.10;19.20;96340.00;;;;5093727;28;20202;-53